Escuta Aérea – Aeroporto Internacional de Fortaleza

METAR: 

SBFZ 220400Z 10014KT 9999 FEW030 26/20 Q1015

TAF: 

TAF SBFZ 220200Z 2206/2306 09013KT 9999 SCT020 TN24/2209Z TX31/2215Z RMK PCN

A escuta poderá ser executada automaticamente